sensor_id;sensor_type;location;lat;lon;timestamp;temperature;humidity
37412;DHT22;23278;52.110;6.050;2023-03-01T00:01:53;-0.90;70.90
37412;DHT22;23278;52.110;6.050;2023-03-01T00:04:19;-0.90;70.70
37412;DHT22;23278;52.110;6.050;2023-03-01T00:06:45;-0.90;70.70
37412;DHT22;23278;52.110;6.050;2023-03-01T00:09:13;-1.00;70.90
37412;DHT22;23278;52.110;6.050;2023-03-01T00:11:39;-1.00;71.00
37412;DHT22;23278;52.110;6.050;2023-03-01T00:14:05;-1.00;72.20
37412;DHT22;23278;52.110;6.050;2023-03-01T00:16:38;-1.00;71.90
37412;DHT22;23278;52.110;6.050;2023-03-01T00:19:06;-1.00;75.10
37412;DHT22;23278;52.110;6.050;2023-03-01T00:21:32;-1.00;74.70
37412;DHT22;23278;52.110;6.050;2023-03-01T00:24:01;-1.10;75.00
37412;DHT22;23278;52.110;6.050;2023-03-01T00:26:27;-1.10;75.00
37412;DHT22;23278;52.110;6.050;2023-03-01T00:28:54;-1.10;76.00
37412;DHT22;23278;52.110;6.050;2023-03-01T00:31:26;-1.10;76.10
37412;DHT22;23278;52.110;6.050;2023-03-01T00:33:54;-1.20;76.80
37412;DHT22;23278;52.110;6.050;2023-03-01T00:36:25;-1.20;76.50
37412;DHT22;23278;52.110;6.050;2023-03-01T00:38:51;-1.20;76.80
37412;DHT22;23278;52.110;6.050;2023-03-01T00:41:19;-1.20;78.20
37412;DHT22;23278;52.110;6.050;2023-03-01T00:43:45;-1.20;77.80
37412;DHT22;23278;52.110;6.050;2023-03-01T00:46:13;-1.20;78.80
37412;DHT22;23278;52.110;6.050;2023-03-01T00:48:39;-1.20;78.60
37412;DHT22;23278;52.110;6.050;2023-03-01T00:51:11;-1.20;79.20
37412;DHT22;23278;52.110;6.050;2023-03-01T00:53:37;-1.20;79.10
37412;DHT22;23278;52.110;6.050;2023-03-01T00:56:05;-1.20;79.30
37412;DHT22;23278;52.110;6.050;2023-03-01T00:58:31;-1.20;79.70
37412;DHT22;23278;52.110;6.050;2023-03-01T01:00:57;-1.30;79.90
37412;DHT22;23278;52.110;6.050;2023-03-01T01:03:24;-1.30;81.00
37412;DHT22;23278;52.110;6.050;2023-03-01T01:05:51;-1.30;81.50
37412;DHT22;23278;52.110;6.050;2023-03-01T01:08:18;-1.30;81.70
37412;DHT22;23278;52.110;6.050;2023-03-01T01:10:45;-1.30;81.70
37412;DHT22;23278;52.110;6.050;2023-03-01T01:13:12;-1.30;81.80
37412;DHT22;23278;52.110;6.050;2023-03-01T01:15:38;-1.40;81.70
37412;DHT22;23278;52.110;6.050;2023-03-01T01:18:05;-1.40;82.40
37412;DHT22;23278;52.110;6.050;2023-03-01T01:20:31;-1.40;82.20
37412;DHT22;23278;52.110;6.050;2023-03-01T01:22:58;-1.40;82.50
37412;DHT22;23278;52.110;6.050;2023-03-01T01:25:24;-1.40;82.50
37412;DHT22;23278;52.110;6.050;2023-03-01T01:27:52;-1.50;82.80
37412;DHT22;23278;52.110;6.050;2023-03-01T01:30:18;-1.50;83.00
37412;DHT22;23278;52.110;6.050;2023-03-01T01:32:44;-1.50;83.20
37412;DHT22;23278;52.110;6.050;2023-03-01T01:35:10;-1.50;83.60
37412;DHT22;23278;52.110;6.050;2023-03-01T01:37:36;-1.50;84.00
37412;DHT22;23278;52.110;6.050;2023-03-01T01:40:02;-1.50;84.10
37412;DHT22;23278;52.110;6.050;2023-03-01T01:42:32;-1.50;84.90
37412;DHT22;23278;52.110;6.050;2023-03-01T01:45:34;-1.60;85.00
37412;DHT22;23278;52.110;6.050;2023-03-01T01:48:09;-1.60;85.70
37412;DHT22;23278;52.110;6.050;2023-03-01T01:50:39;-1.60;85.50
37412;DHT22;23278;52.110;6.050;2023-03-01T01:53:17;-1.70;86.00
37412;DHT22;23278;52.110;6.050;2023-03-01T01:55:48;-1.70;86.50
37412;DHT22;23278;52.110;6.050;2023-03-01T01:58:18;-1.70;86.60
37412;DHT22;23278;52.110;6.050;2023-03-01T02:00:46;-1.70;86.80
37412;DHT22;23278;52.110;6.050;2023-03-01T02:03:17;-1.80;86.80
37412;DHT22;23278;52.110;6.050;2023-03-01T02:08:39;-1.80;88.20
37412;DHT22;23278;52.110;6.050;2023-03-01T02:11:08;-1.80;88.30
37412;DHT22;23278;52.110;6.050;2023-03-01T02:13:35;-1.80;88.10
37412;DHT22;23278;52.110;6.050;2023-03-01T02:16:05;-1.90;88.20
37412;DHT22;23278;52.110;6.050;2023-03-01T02:18:34;-1.90;88.40
37412;DHT22;23278;52.110;6.050;2023-03-01T02:23:40;-1.90;88.80
37412;DHT22;23278;52.110;6.050;2023-03-01T02:26:20;-1.90;89.20
37412;DHT22;23278;52.110;6.050;2023-03-01T02:28:48;-2.00;89.00
37412;DHT22;23278;52.110;6.050;2023-03-01T02:31:18;-1.90;89.20
37412;DHT22;23278;52.110;6.050;2023-03-01T02:34:04;-2.00;89.40
37412;DHT22;23278;52.110;6.050;2023-03-01T02:36:36;-2.00;90.00
37412;DHT22;23278;52.110;6.050;2023-03-01T02:39:06;-2.00;90.00
37412;DHT22;23278;52.110;6.050;2023-03-01T02:41:36;-2.00;90.00
37412;DHT22;23278;52.110;6.050;2023-03-01T02:44:04;-2.00;90.10
37412;DHT22;23278;52.110;6.050;2023-03-01T02:46:30;-2.00;90.20
37412;DHT22;23278;52.110;6.050;2023-03-01T02:48:57;-2.10;90.30
37412;DHT22;23278;52.110;6.050;2023-03-01T02:54:18;-2.10;90.70
37412;DHT22;23278;52.110;6.050;2023-03-01T02:56:47;-2.10;90.90
37412;DHT22;23278;52.110;6.050;2023-03-01T02:59:19;-2.10;91.00
37412;DHT22;23278;52.110;6.050;2023-03-01T03:01:46;-2.10;91.10
37412;DHT22;23278;52.110;6.050;2023-03-01T03:04:17;-2.10;91.20
37412;DHT22;23278;52.110;6.050;2023-03-01T03:06:46;-2.10;91.40
37412;DHT22;23278;52.110;6.050;2023-03-01T03:09:14;-2.10;91.80
37412;DHT22;23278;52.110;6.050;2023-03-01T03:11:40;-2.10;91.90
37412;DHT22;23278;52.110;6.050;2023-03-01T03:14:09;-2.10;92.10
37412;DHT22;23278;52.110;6.050;2023-03-01T03:16:42;-2.10;92.20
37412;DHT22;23278;52.110;6.050;2023-03-01T03:19:08;-2.20;92.20
37412;DHT22;23278;52.110;6.050;2023-03-01T03:21:34;-2.20;92.30
37412;DHT22;23278;52.110;6.050;2023-03-01T03:24:00;-2.20;92.50
37412;DHT22;23278;52.110;6.050;2023-03-01T03:26:26;-2.20;92.80
37412;DHT22;23278;52.110;6.050;2023-03-01T03:28:52;-2.20;92.90
37412;DHT22;23278;52.110;6.050;2023-03-01T03:31:17;-2.30;92.90
37412;DHT22;23278;52.110;6.050;2023-03-01T03:33:43;-2.30;93.30
37412;DHT22;23278;52.110;6.050;2023-03-01T03:36:09;-2.30;93.20
37412;DHT22;23278;52.110;6.050;2023-03-01T03:38:39;-2.30;93.10
37412;DHT22;23278;52.110;6.050;2023-03-01T03:41:07;-2.30;93.80
37412;DHT22;23278;52.110;6.050;2023-03-01T03:43:35;-2.30;93.70
37412;DHT22;23278;52.110;6.050;2023-03-01T03:46:03;-2.30;93.70
37412;DHT22;23278;52.110;6.050;2023-03-01T03:48:40;-2.40;93.50
37412;DHT22;23278;52.110;6.050;2023-03-01T03:51:07;-2.40;93.50
37412;DHT22;23278;52.110;6.050;2023-03-01T03:53:35;-2.40;93.70
37412;DHT22;23278;52.110;6.050;2023-03-01T03:56:01;-2.40;93.60
37412;DHT22;23278;52.110;6.050;2023-03-01T03:58:27;-2.40;93.60
37412;DHT22;23278;52.110;6.050;2023-03-01T04:00:55;-2.50;93.50
37412;DHT22;23278;52.110;6.050;2023-03-01T04:03:22;-2.50;93.50
37412;DHT22;23278;52.110;6.050;2023-03-01T04:05:49;-2.50;93.60
37412;DHT22;23278;52.110;6.050;2023-03-01T04:08:17;-2.50;93.70
37412;DHT22;23278;52.110;6.050;2023-03-01T04:10:49;-2.50;93.90
37412;DHT22;23278;52.110;6.050;2023-03-01T04:13:17;-2.50;93.70
37412;DHT22;23278;52.110;6.050;2023-03-01T04:15:47;-2.60;93.80
37412;DHT22;23278;52.110;6.050;2023-03-01T04:18:15;-2.60;93.80
37412;DHT22;23278;52.110;6.050;2023-03-01T04:20:42;-2.60;94.70
37412;DHT22;23278;52.110;6.050;2023-03-01T04:23:10;-2.60;94.70
37412;DHT22;23278;52.110;6.050;2023-03-01T04:25:53;-2.60;95.00
37412;DHT22;23278;52.110;6.050;2023-03-01T04:28:35;-2.70;94.90
37412;DHT22;23278;52.110;6.050;2023-03-01T04:31:04;-2.70;95.90
37412;DHT22;23278;52.110;6.050;2023-03-01T04:33:49;-2.70;95.40
37412;DHT22;23278;52.110;6.050;2023-03-01T04:36:17;-2.80;95.40
37412;DHT22;23278;52.110;6.050;2023-03-01T04:38:44;-2.80;95.40
37412;DHT22;23278;52.110;6.050;2023-03-01T04:41:15;-2.80;95.50
37412;DHT22;23278;52.110;6.050;2023-03-01T04:43:42;-2.80;95.80
37412;DHT22;23278;52.110;6.050;2023-03-01T04:46:11;-2.80;95.90
37412;DHT22;23278;52.110;6.050;2023-03-01T04:48:38;-2.80;96.30
37412;DHT22;23278;52.110;6.050;2023-03-01T04:51:05;-2.90;96.80
37412;DHT22;23278;52.110;6.050;2023-03-01T04:53:31;-2.90;96.70
37412;DHT22;23278;52.110;6.050;2023-03-01T04:55:58;-2.90;96.70
37412;DHT22;23278;52.110;6.050;2023-03-01T04:58:25;-2.90;96.70
37412;DHT22;23278;52.110;6.050;2023-03-01T05:00:52;-2.90;96.60
37412;DHT22;23278;52.110;6.050;2023-03-01T05:03:18;-2.90;96.80
37412;DHT22;23278;52.110;6.050;2023-03-01T05:05:47;-2.90;96.70
37412;DHT22;23278;52.110;6.050;2023-03-01T05:08:13;-3.00;96.60
37412;DHT22;23278;52.110;6.050;2023-03-01T05:10:49;-3.00;96.70
37412;DHT22;23278;52.110;6.050;2023-03-01T05:13:16;-3.00;96.70
37412;DHT22;23278;52.110;6.050;2023-03-01T05:15:48;-3.00;96.70
37412;DHT22;23278;52.110;6.050;2023-03-01T05:18:14;-3.00;96.80
37412;DHT22;23278;52.110;6.050;2023-03-01T05:20:40;-3.00;96.90
37412;DHT22;23278;52.110;6.050;2023-03-01T05:23:06;-3.00;96.90
37412;DHT22;23278;52.110;6.050;2023-03-01T05:25:33;-3.10;96.90
37412;DHT22;23278;52.110;6.050;2023-03-01T05:28:03;-3.10;97.00
37412;DHT22;23278;52.110;6.050;2023-03-01T05:30:33;-3.10;97.00
37412;DHT22;23278;52.110;6.050;2023-03-01T05:33:00;-3.10;96.90
37412;DHT22;23278;52.110;6.050;2023-03-01T05:35:26;-3.10;97.00
37412;DHT22;23278;52.110;6.050;2023-03-01T05:37:52;-3.10;97.00
37412;DHT22;23278;52.110;6.050;2023-03-01T05:40:21;-3.20;97.00
37412;DHT22;23278;52.110;6.050;2023-03-01T05:42:50;-3.20;97.30
37412;DHT22;23278;52.110;6.050;2023-03-01T05:45:17;-3.20;97.20
37412;DHT22;23278;52.110;6.050;2023-03-01T05:47:45;-3.20;97.40
37412;DHT22;23278;52.110;6.050;2023-03-01T05:50:22;-3.20;97.10
37412;DHT22;23278;52.110;6.050;2023-03-01T05:52:57;-3.20;97.10
37412;DHT22;23278;52.110;6.050;2023-03-01T05:55:23;-3.30;97.10
37412;DHT22;23278;52.110;6.050;2023-03-01T05:57:49;-3.30;97.20
37412;DHT22;23278;52.110;6.050;2023-03-01T06:00:18;-3.30;97.30
37412;DHT22;23278;52.110;6.050;2023-03-01T06:02:45;-3.30;97.30
37412;DHT22;23278;52.110;6.050;2023-03-01T06:05:12;-3.30;97.30
37412;DHT22;23278;52.110;6.050;2023-03-01T06:07:39;-3.30;97.40
37412;DHT22;23278;52.110;6.050;2023-03-01T06:10:06;-3.40;97.30
37412;DHT22;23278;52.110;6.050;2023-03-01T06:12:33;-3.40;97.30
37412;DHT22;23278;52.110;6.050;2023-03-01T06:15:00;-3.40;97.30
37412;DHT22;23278;52.110;6.050;2023-03-01T06:17:29;-3.30;97.40
37412;DHT22;23278;52.110;6.050;2023-03-01T06:19:55;-3.40;97.50
37412;DHT22;23278;52.110;6.050;2023-03-01T06:22:21;-3.40;97.50
37412;DHT22;23278;52.110;6.050;2023-03-01T06:24:47;-3.30;97.70
37412;DHT22;23278;52.110;6.050;2023-03-01T06:27:13;-3.40;97.70
37412;DHT22;23278;52.110;6.050;2023-03-01T06:29:39;-3.40;97.80
37412;DHT22;23278;52.110;6.050;2023-03-01T06:32:05;-3.40;97.90
37412;DHT22;23278;52.110;6.050;2023-03-01T06:34:31;-3.40;97.80
37412;DHT22;23278;52.110;6.050;2023-03-01T06:36:57;-3.40;97.80
37412;DHT22;23278;52.110;6.050;2023-03-01T06:39:23;-3.40;97.90
37412;DHT22;23278;52.110;6.050;2023-03-01T06:41:49;-3.40;98.20
37412;DHT22;23278;52.110;6.050;2023-03-01T06:44:15;-3.40;98.00
37412;DHT22;23278;52.110;6.050;2023-03-01T06:46:41;-3.40;97.90
37412;DHT22;23278;52.110;6.050;2023-03-01T06:49:07;-3.40;97.90
37412;DHT22;23278;52.110;6.050;2023-03-01T06:51:38;-3.40;97.90
37412;DHT22;23278;52.110;6.050;2023-03-01T06:54:04;-3.30;97.90
37412;DHT22;23278;52.110;6.050;2023-03-01T06:56:31;-3.30;97.90
37412;DHT22;23278;52.110;6.050;2023-03-01T06:58:57;-3.30;97.90
37412;DHT22;23278;52.110;6.050;2023-03-01T07:01:24;-3.30;97.90
37412;DHT22;23278;52.110;6.050;2023-03-01T07:03:50;-3.20;97.80
37412;DHT22;23278;52.110;6.050;2023-03-01T07:06:16;-3.20;97.80
37412;DHT22;23278;52.110;6.050;2023-03-01T07:08:43;-3.10;97.70
37412;DHT22;23278;52.110;6.050;2023-03-01T07:11:09;-3.10;97.70
37412;DHT22;23278;52.110;6.050;2023-03-01T07:13:35;-3.10;97.60
37412;DHT22;23278;52.110;6.050;2023-03-01T07:16:01;-3.00;97.60
37412;DHT22;23278;52.110;6.050;2023-03-01T07:18:27;-2.90;97.60
37412;DHT22;23278;52.110;6.050;2023-03-01T07:20:53;-2.90;97.60
37412;DHT22;23278;52.110;6.050;2023-03-01T07:23:19;-2.80;97.60
37412;DHT22;23278;52.110;6.050;2023-03-01T07:25:51;-2.70;97.80
37412;DHT22;23278;52.110;6.050;2023-03-01T07:28:18;-2.70;97.70
37412;DHT22;23278;52.110;6.050;2023-03-01T07:30:43;-2.60;97.90
37412;DHT22;23278;52.110;6.050;2023-03-01T07:33:10;-2.50;97.90
37412;DHT22;23278;52.110;6.050;2023-03-01T07:35:36;-2.50;97.80
37412;DHT22;23278;52.110;6.050;2023-03-01T07:38:02;-2.40;97.80
37412;DHT22;23278;52.110;6.050;2023-03-01T07:40:28;-2.30;97.80
37412;DHT22;23278;52.110;6.050;2023-03-01T07:42:58;-2.20;97.90
37412;DHT22;23278;52.110;6.050;2023-03-01T07:45:25;-2.10;97.80
37412;DHT22;23278;52.110;6.050;2023-03-01T07:47:54;-2.00;97.80
37412;DHT22;23278;52.110;6.050;2023-03-01T07:50:21;-2.00;97.90
37412;DHT22;23278;52.110;6.050;2023-03-01T07:52:48;-1.80;97.80
37412;DHT22;23278;52.110;6.050;2023-03-01T07:55:15;-1.70;97.80
37412;DHT22;23278;52.110;6.050;2023-03-01T07:57:42;-1.60;97.80
37412;DHT22;23278;52.110;6.050;2023-03-01T08:00:10;-1.50;97.70
37412;DHT22;23278;52.110;6.050;2023-03-01T08:02:38;-1.40;97.70
37412;DHT22;23278;52.110;6.050;2023-03-01T08:05:06;-1.20;97.80
37412;DHT22;23278;52.110;6.050;2023-03-01T08:07:32;-1.10;97.70
37412;DHT22;23278;52.110;6.050;2023-03-01T08:09:59;-0.90;97.60
37412;DHT22;23278;52.110;6.050;2023-03-01T08:12:25;-0.70;97.80
37412;DHT22;23278;52.110;6.050;2023-03-01T08:14:53;-0.40;97.70
37412;DHT22;23278;52.110;6.050;2023-03-01T08:17:19;-0.20;97.70
37412;DHT22;23278;52.110;6.050;2023-03-01T08:19:45;0.10;97.60
37412;DHT22;23278;52.110;6.050;2023-03-01T08:22:11;0.30;97.40
37412;DHT22;23278;52.110;6.050;2023-03-01T08:24:37;0.60;97.30
37412;DHT22;23278;52.110;6.050;2023-03-01T08:27:03;1.00;97.20
37412;DHT22;23278;52.110;6.050;2023-03-01T08:29:33;1.30;97.10
37412;DHT22;23278;52.110;6.050;2023-03-01T08:31:59;1.70;96.60
37412;DHT22;23278;52.110;6.050;2023-03-01T08:34:25;2.00;96.30
37412;DHT22;23278;52.110;6.050;2023-03-01T08:36:51;2.30;96.00
37412;DHT22;23278;52.110;6.050;2023-03-01T08:39:19;2.70;95.60
37412;DHT22;23278;52.110;6.050;2023-03-01T08:41:46;3.10;95.20
37412;DHT22;23278;52.110;6.050;2023-03-01T08:44:14;3.40;94.70
37412;DHT22;23278;52.110;6.050;2023-03-01T08:46:42;3.80;94.20
37412;DHT22;23278;52.110;6.050;2023-03-01T08:49:12;4.20;93.50
37412;DHT22;23278;52.110;6.050;2023-03-01T08:51:38;4.50;92.70
37412;DHT22;23278;52.110;6.050;2023-03-01T08:54:05;4.90;91.70
37412;DHT22;23278;52.110;6.050;2023-03-01T08:56:31;5.30;91.10
37412;DHT22;23278;52.110;6.050;2023-03-01T08:58:57;5.70;90.20
37412;DHT22;23278;52.110;6.050;2023-03-01T09:01:23;6.10;88.20
37412;DHT22;23278;52.110;6.050;2023-03-01T09:03:49;6.50;85.10
37412;DHT22;23278;52.110;6.050;2023-03-01T09:06:15;6.90;83.50
37412;DHT22;23278;52.110;6.050;2023-03-01T09:08:43;7.30;81.20
37412;DHT22;23278;52.110;6.050;2023-03-01T09:11:12;7.70;78.80
37412;DHT22;23278;52.110;6.050;2023-03-01T09:13:39;8.10;76.00
37412;DHT22;23278;52.110;6.050;2023-03-01T09:16:07;8.50;74.20
37412;DHT22;23278;52.110;6.050;2023-03-01T09:18:34;9.00;72.90
37412;DHT22;23278;52.110;6.050;2023-03-01T09:21:06;9.40;71.50
37412;DHT22;23278;52.110;6.050;2023-03-01T09:23:37;9.90;68.90
37412;DHT22;23278;52.110;6.050;2023-03-01T09:26:09;10.30;67.10
37412;DHT22;23278;52.110;6.050;2023-03-01T09:28:36;10.80;65.80
37412;DHT22;23278;52.110;6.050;2023-03-01T09:31:03;11.30;63.90
37412;DHT22;23278;52.110;6.050;2023-03-01T09:33:30;11.60;61.90
37412;DHT22;23278;52.110;6.050;2023-03-01T09:36:06;12.00;59.70
37412;DHT22;23278;52.110;6.050;2023-03-01T09:38:33;12.50;57.30
37412;DHT22;23278;52.110;6.050;2023-03-01T09:41:00;12.80;55.60
37412;DHT22;23278;52.110;6.050;2023-03-01T09:46:00;13.70;52.50
37412;DHT22;23278;52.110;6.050;2023-03-01T09:48:29;14.10;50.40
37412;DHT22;23278;52.110;6.050;2023-03-01T09:50:58;14.50;49.30
37412;DHT22;23278;52.110;6.050;2023-03-01T09:53:32;14.90;47.10
37412;DHT22;23278;52.110;6.050;2023-03-01T09:56:02;15.30;45.50
37412;DHT22;23278;52.110;6.050;2023-03-01T09:58:51;15.40;42.60
37412;DHT22;23278;52.110;6.050;2023-03-01T10:06:58;16.10;39.80
37412;DHT22;23278;52.110;6.050;2023-03-01T10:09:32;16.50;38.80
37412;DHT22;23278;52.110;6.050;2023-03-01T10:12:02;17.00;38.10
37412;DHT22;23278;52.110;6.050;2023-03-01T10:14:43;17.50;36.60
37412;DHT22;23278;52.110;6.050;2023-03-01T10:20:24;18.20;35.40
37412;DHT22;23278;52.110;6.050;2023-03-01T10:22:50;18.50;34.70
37412;DHT22;23278;52.110;6.050;2023-03-01T10:30:53;19.80;33.10
37412;DHT22;23278;52.110;6.050;2023-03-01T10:33:29;20.20;32.70
37412;DHT22;23278;52.110;6.050;2023-03-01T10:35:56;20.60;32.00
37412;DHT22;23278;52.110;6.050;2023-03-01T10:38:21;21.10;31.90
37412;DHT22;23278;52.110;6.050;2023-03-01T10:41:05;21.60;31.40
37412;DHT22;23278;52.110;6.050;2023-03-01T10:43:53;21.90;30.40
37412;DHT22;23278;52.110;6.050;2023-03-01T10:46:35;21.90;29.90
37412;DHT22;23278;52.110;6.050;2023-03-01T10:51:41;22.60;29.70
37412;DHT22;23278;52.110;6.050;2023-03-01T10:54:23;22.70;28.90
37412;DHT22;23278;52.110;6.050;2023-03-01T10:56:56;22.90;28.90
37412;DHT22;23278;52.110;6.050;2023-03-01T10:59:31;23.10;29.00
37412;DHT22;23278;52.110;6.050;2023-03-01T11:05:24;24.00;28.80
37412;DHT22;23278;52.110;6.050;2023-03-01T11:07:56;23.70;28.80
37412;DHT22;23278;52.110;6.050;2023-03-01T11:10:26;23.00;28.90
37412;DHT22;23278;52.110;6.050;2023-03-01T11:12:54;23.40;28.70
37412;DHT22;23278;52.110;6.050;2023-03-01T11:15:30;24.10;28.30
37412;DHT22;23278;52.110;6.050;2023-03-01T11:17:57;24.50;28.10
37412;DHT22;23278;52.110;6.050;2023-03-01T11:20:35;24.90;28.10
37412;DHT22;23278;52.110;6.050;2023-03-01T11:23:05;25.40;27.80
37412;DHT22;23278;52.110;6.050;2023-03-01T11:25:40;25.70;27.20
37412;DHT22;23278;52.110;6.050;2023-03-01T11:28:13;25.70;27.10
37412;DHT22;23278;52.110;6.050;2023-03-01T11:36:06;26.50;27.00
37412;DHT22;23278;52.110;6.050;2023-03-01T11:38:35;27.00;27.10
37412;DHT22;23278;52.110;6.050;2023-03-01T11:41:14;27.20;26.10
37412;DHT22;23278;52.110;6.050;2023-03-01T12:08:38;28.10;26.10
37412;DHT22;23278;52.110;6.050;2023-03-01T12:34:07;29.60;24.90
37412;DHT22;23278;52.110;6.050;2023-03-01T12:49:40;29.60;24.70
37412;DHT22;23278;52.110;6.050;2023-03-01T12:52:15;29.70;24.80
37412;DHT22;23278;52.110;6.050;2023-03-01T12:54:42;29.80;24.70
37412;DHT22;23278;52.110;6.050;2023-03-01T12:57:18;29.80;24.90
37412;DHT22;23278;52.110;6.050;2023-03-01T13:00:12;29.90;24.70
37412;DHT22;23278;52.110;6.050;2023-03-01T13:03:11;29.90;24.60
37412;DHT22;23278;52.110;6.050;2023-03-01T13:08:42;29.60;24.40
37412;DHT22;23278;52.110;6.050;2023-03-01T13:11:20;29.70;24.50
37412;DHT22;23278;52.110;6.050;2023-03-01T13:13:47;30.20;24.40
37412;DHT22;23278;52.110;6.050;2023-03-01T13:16:38;30.20;24.30
37412;DHT22;23278;52.110;6.050;2023-03-01T13:19:06;30.30;24.40
37412;DHT22;23278;52.110;6.050;2023-03-01T13:21:32;30.70;24.20
37412;DHT22;23278;52.110;6.050;2023-03-01T13:23:58;30.60;24.10
37412;DHT22;23278;52.110;6.050;2023-03-01T13:26:24;30.30;24.20
37412;DHT22;23278;52.110;6.050;2023-03-01T13:28:55;30.10;24.10
37412;DHT22;23278;52.110;6.050;2023-03-01T13:37:10;29.90;23.90
37412;DHT22;23278;52.110;6.050;2023-03-01T13:39:40;29.70;24.20
37412;DHT22;23278;52.110;6.050;2023-03-01T13:44:55;29.60;24.20
37412;DHT22;23278;52.110;6.050;2023-03-01T13:47:21;29.70;24.00
37412;DHT22;23278;52.110;6.050;2023-03-01T13:49:49;29.70;24.00
37412;DHT22;23278;52.110;6.050;2023-03-01T13:52:40;29.70;24.00
37412;DHT22;23278;52.110;6.050;2023-03-01T13:57:40;29.40;24.00
37412;DHT22;23278;52.110;6.050;2023-03-01T14:03:04;29.60;24.20
37412;DHT22;23278;52.110;6.050;2023-03-01T14:05:32;29.50;23.90
37412;DHT22;23278;52.110;6.050;2023-03-01T14:07:59;29.50;24.00
37412;DHT22;23278;52.110;6.050;2023-03-01T14:10:36;29.60;24.00
37412;DHT22;23278;52.110;6.050;2023-03-01T14:21:42;29.00;23.90
37412;DHT22;23278;52.110;6.050;2023-03-01T14:24:20;29.00;23.80
37412;DHT22;23278;52.110;6.050;2023-03-01T14:26:47;29.00;23.80
37412;DHT22;23278;52.110;6.050;2023-03-01T14:29:35;29.10;23.90
37412;DHT22;23278;52.110;6.050;2023-03-01T14:32:21;29.00;23.80
37412;DHT22;23278;52.110;6.050;2023-03-01T14:34:50;28.60;23.80
37412;DHT22;23278;52.110;6.050;2023-03-01T14:37:25;28.40;23.90
37412;DHT22;23278;52.110;6.050;2023-03-01T14:39:52;28.10;23.80
37412;DHT22;23278;52.110;6.050;2023-03-01T14:42:20;27.90;24.00
37412;DHT22;23278;52.110;6.050;2023-03-01T14:44:52;27.90;24.00
37412;DHT22;23278;52.110;6.050;2023-03-01T14:47:31;27.90;24.00
37412;DHT22;23278;52.110;6.050;2023-03-01T14:50:04;27.80;23.70
37412;DHT22;23278;52.110;6.050;2023-03-01T14:52:38;27.50;23.60
37412;DHT22;23278;52.110;6.050;2023-03-01T14:55:13;27.00;23.70
37412;DHT22;23278;52.110;6.050;2023-03-01T14:57:44;26.50;23.90
37412;DHT22;23278;52.110;6.050;2023-03-01T15:00:17;26.50;24.10
37412;DHT22;23278;52.110;6.050;2023-03-01T15:02:46;26.50;24.00
37412;DHT22;23278;52.110;6.050;2023-03-01T15:05:14;26.20;23.90
37412;DHT22;23278;52.110;6.050;2023-03-01T15:07:42;26.10;24.00
37412;DHT22;23278;52.110;6.050;2023-03-01T15:10:23;26.30;24.10
37412;DHT22;23278;52.110;6.050;2023-03-01T15:12:50;26.20;24.00
37412;DHT22;23278;52.110;6.050;2023-03-01T15:18:02;25.90;24.00
37412;DHT22;23278;52.110;6.050;2023-03-01T15:20:30;25.50;24.10
37412;DHT22;23278;52.110;6.050;2023-03-01T15:23:01;25.00;24.10
37412;DHT22;23278;52.110;6.050;2023-03-01T15:25:29;23.50;24.70
37412;DHT22;23278;52.110;6.050;2023-03-01T15:27:58;22.00;25.30
37412;DHT22;23278;52.110;6.050;2023-03-01T15:30:38;20.80;25.90
37412;DHT22;23278;52.110;6.050;2023-03-01T15:36:00;18.40;27.40
37412;DHT22;23278;52.110;6.050;2023-03-01T15:38:53;17.50;28.50
37412;DHT22;23278;52.110;6.050;2023-03-01T15:41:31;16.70;29.00
37412;DHT22;23278;52.110;6.050;2023-03-01T15:44:14;16.10;29.30
37412;DHT22;23278;52.110;6.050;2023-03-01T15:46:46;15.30;30.10
37412;DHT22;23278;52.110;6.050;2023-03-01T15:49:38;14.60;31.00
37412;DHT22;23278;52.110;6.050;2023-03-01T15:52:17;14.00;31.60
37412;DHT22;23278;52.110;6.050;2023-03-01T15:54:44;13.60;32.40
37412;DHT22;23278;52.110;6.050;2023-03-01T15:57:14;13.20;33.10
37412;DHT22;23278;52.110;6.050;2023-03-01T15:59:41;13.00;33.30
37412;DHT22;23278;52.110;6.050;2023-03-01T16:02:10;12.80;33.80
37412;DHT22;23278;52.110;6.050;2023-03-01T16:04:38;12.60;33.90
37412;DHT22;23278;52.110;6.050;2023-03-01T16:07:05;12.50;35.00
37412;DHT22;23278;52.110;6.050;2023-03-01T16:09:31;12.30;35.20
37412;DHT22;23278;52.110;6.050;2023-03-01T16:11:57;12.10;35.60
37412;DHT22;23278;52.110;6.050;2023-03-01T16:14:23;11.80;36.10
37412;DHT22;23278;52.110;6.050;2023-03-01T16:16:50;11.60;36.70
37412;DHT22;23278;52.110;6.050;2023-03-01T16:19:16;11.40;37.60
37412;DHT22;23278;52.110;6.050;2023-03-01T16:21:42;11.30;38.40
37412;DHT22;23278;52.110;6.050;2023-03-01T16:24:09;11.20;38.60
37412;DHT22;23278;52.110;6.050;2023-03-01T16:26:36;11.10;38.70
37412;DHT22;23278;52.110;6.050;2023-03-01T16:29:03;10.90;38.90
37412;DHT22;23278;52.110;6.050;2023-03-01T16:31:29;10.80;39.50
37412;DHT22;23278;52.110;6.050;2023-03-01T16:33:58;10.60;39.90
37412;DHT22;23278;52.110;6.050;2023-03-01T16:36:26;10.50;39.60
37412;DHT22;23278;52.110;6.050;2023-03-01T16:38:54;10.40;39.90
37412;DHT22;23278;52.110;6.050;2023-03-01T16:41:23;10.30;40.20
37412;DHT22;23278;52.110;6.050;2023-03-01T16:43:50;10.30;40.20
37412;DHT22;23278;52.110;6.050;2023-03-01T16:46:24;10.10;40.70
37412;DHT22;23278;52.110;6.050;2023-03-01T16:48:51;10.00;40.60
37412;DHT22;23278;52.110;6.050;2023-03-01T16:51:17;10.00;41.00
37412;DHT22;23278;52.110;6.050;2023-03-01T16:53:44;9.80;41.50
37412;DHT22;23278;52.110;6.050;2023-03-01T16:56:11;9.70;41.80
37412;DHT22;23278;52.110;6.050;2023-03-01T16:58:38;9.60;42.10
37412;DHT22;23278;52.110;6.050;2023-03-01T17:01:09;9.50;42.00
37412;DHT22;23278;52.110;6.050;2023-03-01T17:03:37;9.40;42.00
37412;DHT22;23278;52.110;6.050;2023-03-01T17:06:05;9.30;42.60
37412;DHT22;23278;52.110;6.050;2023-03-01T17:08:32;9.20;42.80
37412;DHT22;23278;52.110;6.050;2023-03-01T17:11:06;9.00;43.20
37412;DHT22;23278;52.110;6.050;2023-03-01T17:13:33;8.90;44.00
37412;DHT22;23278;52.110;6.050;2023-03-01T17:16:06;8.80;43.50
37412;DHT22;23278;52.110;6.050;2023-03-01T17:18:33;8.80;43.60
37412;DHT22;23278;52.110;6.050;2023-03-01T17:20:59;8.70;43.40
37412;DHT22;23278;52.110;6.050;2023-03-01T17:23:26;8.60;43.40
37412;DHT22;23278;52.110;6.050;2023-03-01T17:25:53;8.50;43.70
37412;DHT22;23278;52.110;6.050;2023-03-01T17:28:25;8.50;44.00
37412;DHT22;23278;52.110;6.050;2023-03-01T17:30:52;8.40;44.20
37412;DHT22;23278;52.110;6.050;2023-03-01T17:33:19;8.30;44.20
37412;DHT22;23278;52.110;6.050;2023-03-01T17:35:46;8.20;44.20
37412;DHT22;23278;52.110;6.050;2023-03-01T17:38:13;8.10;44.50
37412;DHT22;23278;52.110;6.050;2023-03-01T17:40:41;8.00;44.40
37412;DHT22;23278;52.110;6.050;2023-03-01T17:43:08;7.90;44.60
37412;DHT22;23278;52.110;6.050;2023-03-01T17:45:38;7.90;44.80
37412;DHT22;23278;52.110;6.050;2023-03-01T17:48:05;7.80;45.00
37412;DHT22;23278;52.110;6.050;2023-03-01T17:50:32;7.70;45.20
37412;DHT22;23278;52.110;6.050;2023-03-01T17:52:59;7.60;45.30
37412;DHT22;23278;52.110;6.050;2023-03-01T17:55:27;7.50;45.50